ΕΜΥ, Εθνική Μετεωρολογική Υπηρεσία - Δελτία Καιρού, Προγνώσεις

ΑΕΡΟΝΑΥΤΙΛΙΑ

GREEK AIRPORTS CODES

TAF LGLM 290200Z 2903/2912 14008KT 9999 FEW008 BKN020 BKN034 TEMPO 2903/2912 5000 RA BECMG 2904/2906 03010KT=

EUROPEAN AIRPORTS CODES